EDNY Airport Information

Runway Information
Runway 06 Length 7729 ft width 148 ft
Elevation 1334 ft Threshold 885 ft Heading 60
Runway 24 Length 7729 ft Width 148 ft
Elevation 1367 ft Threshold 675 ft Heading 240
Airport Frequencies
Type APP Name ZURICH ARR Frequency 119.925 MHZ
Type ATIS Name ATIS Frequency 129.6 MHZ
Type INFO Name INFO Frequency 122.5 MHZ
Type RDO Name MUNCHEN IN Frequency 126.95 MHZ
Type TWR Name TWR Frequency 120.075 MHZ
Airport Navaids
Type NDB Name Friedrichshafen Frequency 473 KHZ
Type DME Name Friedrichshafen Frequency 112600 KHZ
Airport Weather Information & NOTAM
ADDS - METARS form results

(1459 UTC 14 June 2021)
Data provider http://aviationweather.gov/metar/data/
 
METAR text: EDNY 141450Z VRB05KT CAVOK 27/10 Q1019
Conditions at: EDNY (FRIEDRICHSHAFEN , DE) observed 1450 UTC 14 June 2021
Temperature: 27.0°C (81°F)
Dewpoint: 10.0°C (50°F) [RH = 34%]
Pressure (altimeter): 30.09 inches Hg (1019.0 mb)
Winds: variable direction winds at 6 MPH (5 knots; 2.6 m/s)
Visibility: 6 or more miles (10+ km)
Ceiling: ceiling and visibility are OK
Clouds: unknown
Weather: no significant weather observed at this time

METAR text: EDNY 141420Z 34006KT CAVOK 27/10 Q1019
Conditions at: EDNY (FRIEDRICHSHAFEN , DE) observed 1420 UTC 14 June 2021
Temperature: 27.0°C (81°F)
Dewpoint: 10.0°C (50°F) [RH = 34%]
Pressure (altimeter): 30.09 inches Hg (1019.0 mb)
Winds: from the NNW (340 degrees) at 7 MPH (6 knots; 3.1 m/s)
Visibility: 6 or more miles (10+ km)
Ceiling: ceiling and visibility are OK
Clouds: unknown
Weather: no significant weather observed at this time

Forecast for: EDNY (FRIEDRICHSHAFEN , DE)
Text: TAF EDNY 141100Z 1412/1512 20005KT CAVOK
Forecast period: 1200 to 1400 UTC 14 June 2021
Forecast type: FROM: standard forecast or significant change
Winds: from the SSW (200 degrees) at 6 MPH (5 knots; 2.6 m/s)
Visibility: 6 or more miles (10+ km)
Ceiling: unknown
Clouds: missing
Weather: NSW  (no significant weather)
Text: BECMG 1414/1417 VRB03KT
Forecast period: 1400 UTC 14 June 2021 to 0900 UTC 15 June 2021
Forecast type: BECOMING: Conditions expected to become as follows by 1700 UTC 14 June 2021
Winds: variable direction winds at 3 MPH (3 knots; 1.5 m/s)
Visibility: 6 or more miles (10+ km)
Ceiling: unknown
Clouds: missing
Weather: NSW  (no significant weather)
Text: BECMG 1509/1511 22005KT
Forecast period: 0900 to 1200 UTC 15 June 2021
Forecast type: BECOMING: Conditions expected to become as follows by 1100 UTC 15 June 2021
Winds: from the SW (220 degrees) at 6 MPH (5 knots; 2.6 m/s)
Visibility: 6 or more miles (10+ km)
Ceiling: unknown
Clouds: missing
Weather: NSW  (no significant weather)